Nearby METAR Reports

 

KSJC - San Jose, California, USA
Distance from station: NØ 14km
Opdateret: 13/06/2024 19:53
Few Clouds
Few Clouds
 Vind retning S
Vind: S 7 km/h
Temperatur: 23°C
Dugpunkt: 11°C
Fugtighed: 47%
Barometer: 1013.9 hPa
Clouds: Few Clouds
Visibility: 16 km
Cloud details: Few Clouds 274 m
2024/06/13 17:53 KSJC 131753Z 19004KT 10SM FEW009 23/11 A2994 RMK AO2 SLP137 T02280106 10233 20144 51006
KNUQ - Moffett Nas/Mtn, California, USA
Distance from station: N 14km
Opdateret: 13/06/2024 19:55
Klart
Klart
 Vind retning NNV
Vind: NNV 11 km/h
Temperatur: 19°C
Dugpunkt: 13°C
Fugtighed: 68%
Barometer: 1014.2 hPa
Clouds: Klart
Visibility: 14 km
2024/06/13 17:55 KNUQ 131755Z AUTO 33006KT 9SM CLR 19/13 A2995 RMK AO2
KPAO - Palo Alto, California, USA
Distance from station: NNV 23km
Opdateret: 13/06/2024 19:47
Klart
Klart
 Vind retning N
Vind: N 15 km/h
Temperatur: 18°C
Dugpunkt: 13°C
Fugtighed: 73%
Barometer: 1014.6 hPa
Clouds: Klart
Visibility: 16 km
2024/06/13 17:47 KPAO 131747Z 36008KT 10SM SKC 18/13 A2996
 
KRHV - San Jose/Reid, California, USA
Distance from station: ØNØ 19km
Opdateret: 13/06/2024 19:47
Klart
Klart
 Vind retning S
Vind: S 20 km/h
Temperatur: 21°C
Dugpunkt: 11°C
Fugtighed: 53%
Barometer: 1014.2 hPa
Clouds: Klart
Visibility: 16 km
2024/06/13 17:47 KRHV 131747Z 18011KT 10SM SKC 21/11 A2995
KOAK - Oakland, California, USA
Distance from station: NNV 50km
Opdateret: 13/06/2024 19:53
Delvist skyet
Delvist skyet
 Vind retning V
Vind: V 19 km/h
Temperatur: 17°C
Dugpunkt: 11°C
Fugtighed: 68%
Barometer: 1014.9 hPa
Clouds: Delvist skyet
Visibility: 16 km
Cloud details: Delvist skyet 518 m
2024/06/13 17:53 KOAK 131753Z 27010KT 10SM SCT017 17/11 A2997 RMK AO2 SLP148 T01720106 10178 20133 51010
KSQL - San Carlos Airpo, California, USA
Distance from station: NV 34km
Opdateret: 13/06/2024 19:47
Klart
Klart
 Vind retning V
Vind: V 22 km/h
Temperatur: 17°C
Dugpunkt: 10°C
Fugtighed: 64%
Barometer: 1014.6 hPa
Clouds: Klart
Visibility: 16 km
2024/06/13 17:47 KSQL 131747Z 26012KT 10SM CLR 17/10 A2996
 
KSFO - San Francisco, California, USA
Distance from station: NV 49km
Opdateret: 13/06/2024 19:56
Few Clouds
Few Clouds
 Vind retning V
Vind: V 15 km/h
Temperatur: 17°C
Dugpunkt: 9°C
Fugtighed: 59%
Barometer: 1014.6 hPa
Clouds: Few Clouds
Visibility: 16 km
Cloud details: Few Clouds 183 m
Few Clouds 396 m
2024/06/13 17:56 KSFO 131756Z 26008KT 10SM FEW006 FEW013 17/09 A2996 RMK AO2 SLP145 T01720094 10172 20117 51009
KE16 - San Martin, California, USA
Distance from station: ØSØ 43km
Opdateret: 13/06/2024 19:55
Klart
Klart
 Vind retning ØSØ
Vind: ØSØ 30 km/h
Temperatur: 16°C
Dugpunkt: 10°C
Fugtighed: 68%
Barometer: 1015.6 hPa
Clouds: Klart
Visibility: 14 km
2024/06/13 17:55 KE16 131755Z AUTO 12016KT 9SM CLR 16/10 A2999 RMK AO2
KWVI - Watsonville, California, USA
Distance from station: SSØ 44km
Opdateret: 13/06/2024 19:53
Overskyet
Overskyet
 Vind retning SV
Vind: SV 13 km/h
Temperatur: 13°C
Dugpunkt: 11°C
Fugtighed: 88%
Barometer: 1016.6 hPa
Clouds: Overskyet
Visibility: 16 km
Cloud details: Overskyet 274 m
2024/06/13 17:53 KWVI 131753Z AUTO 23007KT 10SM OVC009 13/11 A3002 RMK AO2 SLP164 T01330106 10133 20117 51011
 
KHAF - Half Moon Bay, California, USA
Distance from station: VNV 50km
Opdateret: 13/06/2024 19:55
Mist, Overskyet
Mist, Overskyet
 Vind retning SV
Vind: SV 15 km/h
Temperatur: 12°C
Dugpunkt: 11°C
Fugtighed: 94%
Barometer: 1016.3 hPa
Oversigt: Mist
Clouds: Overskyet
Visibility: 6 km
Cloud details: Overskyet 396 m
2024/06/13 17:55 KHAF 131755Z AUTO 22008KT 4SM BR OVC013 12/11 A3001 RMK AO2
KHWD - Hayward, California, USA
Distance from station: N 44km
Opdateret: 13/06/2024 19:54
Klart
Klart
 Vind retning VNV
Vind: VNV 15 km/h
Temperatur: 19°C
Dugpunkt: 11°C
Fugtighed: 60%
Barometer: 1014.2 hPa
Clouds: Klart
Visibility: 16 km
2024/06/13 17:54 KHWD 131754Z 29008KT 10SM CLR 19/11 A2995 RMK AO2 SLP152 T01890106 10189 20144 51009
KLVK - Livermore, California, USA
Distance from station: NNØ 51km
Opdateret: 13/06/2024 19:53
Klart
Klart
 Vind retning VNV
Vind: VNV 17 km/h
Temperatur: 22°C
Dugpunkt: 12°C
Fugtighed: 53%
Barometer: 1013.2 hPa
Clouds: Klart
Visibility: 16 km
2024/06/13 17:53 KLVK 131753Z 30009KT 10SM CLR 22/12 A2992 RMK AO2 SLP129 T02170117 10217 20128 51004